createdAt,value
2023-01-13T00:00:54.883Z,8.09
2023-01-13T00:03:58.247Z,8.15
2023-01-13T00:07:03.004Z,8.08
2023-01-13T00:10:07.731Z,8.06
2023-01-13T00:13:11.677Z,8.05
2023-01-13T00:16:17.168Z,8.03
2023-01-13T00:19:20.713Z,8.20
2023-01-13T00:22:26.364Z,8.11
2023-01-13T00:25:29.591Z,8.20
2023-01-13T00:28:33.079Z,8.16
2023-01-13T00:31:36.415Z,8.07
2023-01-13T00:34:39.774Z,8.22
2023-01-13T00:37:44.574Z,8.07
2023-01-13T00:40:56.685Z,8.04
2023-01-13T00:44:07.971Z,8.18
2023-01-13T00:47:13.479Z,8.22
2023-01-13T00:50:17.503Z,8.07
2023-01-13T00:53:22.610Z,8.05
2023-01-13T00:56:39.762Z,8.29
2023-01-13T00:59:43.758Z,8.22
2023-01-13T01:02:47.097Z,8.19
2023-01-13T01:05:50.659Z,8.27
2023-01-13T01:08:57.797Z,8.22
2023-01-13T01:12:01.423Z,8.26
2023-01-13T01:15:07.371Z,8.30
2023-01-13T01:18:10.835Z,8.30
2023-01-13T01:21:15.538Z,8.23
2023-01-13T01:24:20.218Z,8.31
2023-01-13T01:27:23.555Z,8.21
2023-01-13T01:30:27.922Z,8.31
2023-01-13T01:33:32.058Z,8.21
2023-01-13T01:36:36.604Z,8.18
2023-01-13T01:39:41.384Z,8.29
2023-01-13T01:43:02.005Z,8.10
2023-01-13T01:46:06.592Z,8.30
2023-01-13T01:49:17.882Z,8.46
2023-01-13T01:52:26.118Z,8.29
2023-01-13T01:55:34.341Z,8.29
2023-01-13T01:58:45.464Z,8.16
2023-01-13T02:01:50.861Z,8.32
2023-01-13T02:04:56.926Z,8.23
2023-01-13T02:08:01.716Z,8.17
2023-01-13T02:11:26.681Z,8.07
2023-01-13T02:14:33.288Z,8.29
2023-01-13T02:18:02.943Z,8.35
2023-01-13T02:21:29.239Z,8.31
2023-01-13T02:24:58.885Z,8.37
2023-01-13T02:28:21.145Z,8.37
2023-01-13T02:31:44.912Z,8.31
2023-01-13T02:34:56.459Z,8.52
2023-01-13T02:38:02.202Z,8.42
2023-01-13T02:41:22.903Z,8.44
2023-01-13T02:44:29.585Z,8.39
2023-01-13T02:47:38.979Z,8.37
2023-01-13T02:50:48.365Z,8.34
2023-01-13T02:53:57.719Z,8.36
2023-01-13T02:57:02.255Z,8.34
2023-01-13T03:00:08.542Z,8.47
2023-01-13T03:03:13.250Z,8.43
2023-01-13T03:06:35.569Z,8.39
2023-01-13T03:09:45.128Z,8.26
2023-01-13T03:12:57.045Z,8.15
2023-01-13T03:16:10.323Z,8.14
2023-01-13T03:19:26.506Z,8.15
2023-01-13T03:22:36.293Z,8.17
2023-01-13T03:25:44.014Z,8.07
2023-01-13T03:28:52.561Z,8.18
2023-01-13T03:32:02.084Z,8.03
2023-01-13T03:35:13.075Z,7.73
2023-01-13T03:38:26.797Z,8.07
2023-01-13T03:41:34.861Z,8.15
2023-01-13T03:44:42.174Z,7.98
2023-01-13T03:47:55.198Z,8.02
2023-01-13T03:51:07.925Z,8.05
2023-01-13T03:54:17.179Z,8.00
2023-01-13T03:57:25.536Z,8.07
2023-01-13T04:00:32.374Z,8.07
2023-01-13T04:03:40.507Z,8.00
2023-01-13T04:06:51.721Z,8.04
2023-01-13T04:09:59.243Z,7.80
2023-01-13T04:13:07.718Z,7.87
2023-01-13T04:16:12.748Z,7.80
2023-01-13T04:19:16.612Z,7.92
2023-01-13T04:22:21.483Z,7.86
2023-01-13T04:25:25.432Z,7.89
2023-01-13T04:28:28.729Z,7.84
2023-01-13T04:34:25.177Z,7.92
2023-01-13T04:37:29.797Z,7.85
2023-01-13T04:40:33.187Z,7.95
2023-01-13T04:43:36.648Z,7.98
2023-01-13T04:46:39.978Z,7.96
2023-01-13T04:49:44.689Z,7.89
2023-01-13T04:52:48.565Z,7.74
2023-01-13T04:55:52.445Z,7.90
2023-01-13T04:58:55.724Z,7.90
2023-01-13T05:01:59.010Z,7.84
2023-01-13T05:05:03.979Z,7.78
2023-01-13T05:08:09.076Z,7.84
2023-01-13T05:11:26.374Z,7.79
2023-01-13T05:14:47.232Z,7.89
2023-01-13T05:17:51.461Z,8.05
2023-01-13T05:20:57.150Z,7.90
2023-01-13T05:24:17.893Z,7.92
2023-01-13T05:27:21.538Z,7.95
2023-01-13T05:30:28.460Z,7.94
2023-01-13T05:33:33.713Z,7.98
2023-01-13T05:36:39.685Z,7.97
2023-01-13T05:40:01.636Z,7.91
2023-01-13T05:43:24.704Z,7.86
2023-01-13T05:46:28.272Z,7.91
2023-01-13T05:49:31.457Z,7.92
2023-01-13T05:52:36.256Z,7.93
2023-01-13T05:55:40.962Z,7.90
2023-01-13T05:58:44.705Z,7.80
2023-01-13T06:01:48.135Z,7.85
2023-01-13T06:04:51.613Z,7.88
2023-01-13T06:07:59.250Z,7.78
2023-01-13T06:11:02.626Z,7.89
2023-01-13T06:14:06.164Z,7.89
2023-01-13T06:17:10.485Z,7.84
2023-01-13T06:20:14.671Z,7.98
2023-01-13T06:23:19.296Z,7.93
2023-01-13T06:26:25.652Z,7.90
2023-01-13T06:29:28.924Z,7.84
2023-01-13T06:32:39.211Z,7.75
2023-01-13T06:35:45.883Z,7.85
2023-01-13T06:38:53.703Z,7.02
2023-01-13T06:42:14.299Z,7.77
2023-01-13T06:45:17.912Z,7.67
2023-01-13T06:48:25.214Z,7.74
2023-01-13T06:51:28.626Z,7.63
2023-01-13T06:54:35.532Z,7.63
2023-01-13T06:57:49.090Z,7.57
2023-01-13T07:00:52.836Z,7.58
2023-01-13T07:03:56.227Z,7.63
2023-01-13T07:06:59.475Z,7.57
2023-01-13T07:10:04.444Z,7.67
2023-01-13T07:13:25.680Z,7.55
2023-01-13T07:16:31.864Z,7.58
2023-01-13T07:19:35.293Z,7.58
2023-01-13T07:22:38.735Z,7.55
2023-01-13T07:25:44.651Z,7.60
2023-01-13T07:28:47.928Z,7.60
2023-01-13T07:31:51.313Z,7.60
2023-01-13T07:34:56.641Z,7.60
2023-01-13T07:37:59.998Z,7.60
2023-01-13T07:41:24.931Z,7.53
2023-01-13T07:44:27.781Z,7.55
2023-01-13T07:47:31.101Z,7.50
2023-01-13T07:50:34.466Z,7.51
2023-01-13T07:53:38.524Z,7.59
2023-01-13T07:56:43.572Z,7.62
2023-01-13T07:59:48.754Z,7.63
2023-01-13T08:02:53.090Z,7.57
2023-01-13T08:05:56.520Z,7.69
2023-01-13T08:09:00.209Z,7.75
2023-01-13T08:12:34.683Z,7.69
2023-01-13T08:15:37.968Z,7.71
2023-01-13T08:18:42.214Z,7.59
2023-01-13T08:21:45.451Z,7.65
2023-01-13T08:24:48.872Z,7.76
2023-01-13T08:27:53.560Z,7.69
2023-01-13T08:31:01.041Z,7.75
2023-01-13T08:34:04.389Z,7.80
2023-01-13T08:37:07.754Z,7.83
2023-01-13T08:40:12.796Z,7.82
2023-01-13T08:43:17.686Z,7.88
2023-01-13T08:46:21.496Z,7.92
2023-01-13T08:49:26.209Z,8.05
2023-01-13T08:52:30.283Z,8.06
2023-01-13T08:55:34.252Z,8.13
2023-01-13T08:58:39.222Z,8.09
2023-01-13T09:01:44.084Z,8.17
2023-01-13T09:04:50.290Z,8.14
2023-01-13T09:07:53.652Z,8.17
2023-01-13T09:10:58.195Z,8.20
2023-01-13T09:14:03.348Z,7.65
2023-01-13T09:17:08.456Z,8.06
2023-01-13T09:20:13.556Z,8.07
2023-01-13T09:23:16.829Z,8.19
2023-01-13T09:26:22.760Z,8.12
2023-01-13T09:29:27.548Z,8.12
2023-01-13T09:32:30.791Z,7.94
2023-01-13T09:35:33.357Z,7.93
2023-01-13T09:38:36.606Z,7.73
2023-01-13T09:42:01.568Z,7.50
2023-01-13T09:45:15.366Z,7.36
2023-01-13T09:48:23.693Z,7.28
2023-01-13T09:51:32.796Z,7.08
2023-01-13T09:54:42.226Z,7.07
2023-01-13T09:57:45.865Z,7.00
2023-01-13T10:01:01.962Z,7.00
2023-01-13T10:04:11.255Z,7.05
2023-01-13T10:07:16.014Z,6.86
2023-01-13T10:10:42.960Z,6.83
2023-01-13T10:13:53.671Z,6.74
2023-01-13T10:17:19.976Z,6.70
2023-01-13T10:20:32.981Z,6.62
2023-01-13T10:23:56.673Z,6.59
2023-01-13T10:27:04.924Z,6.70
2023-01-13T10:34:29.241Z,6.62
2023-01-13T10:37:33.746Z,6.59
2023-01-13T10:40:37.682Z,6.56
2023-01-13T10:43:43.194Z,6.55
2023-01-13T10:46:54.597Z,6.55
2023-01-13T10:50:09.643Z,6.65
2023-01-13T10:53:21.038Z,6.57
2023-01-13T10:56:27.938Z,6.15
2023-01-13T10:59:34.506Z,6.68
2023-01-13T11:02:39.662Z,6.68
2023-01-13T11:05:54.146Z,6.50
2023-01-13T11:08:59.267Z,6.46
2023-01-13T11:12:05.201Z,6.46
2023-01-13T11:15:16.815Z,6.80
2023-01-13T11:18:27.772Z,6.73
2023-01-13T11:21:40.205Z,6.78
2023-01-13T11:24:51.207Z,6.78
2023-01-13T11:28:01.987Z,6.78
2023-01-13T11:31:18.528Z,6.88
2023-01-13T11:34:31.576Z,7.09
2023-01-13T11:37:42.938Z,6.96
2023-01-13T11:40:49.700Z,6.88
2023-01-13T11:43:57.481Z,6.63
2023-01-13T11:47:04.172Z,6.88
2023-01-13T11:50:18.386Z,6.99
2023-01-13T11:53:43.406Z,7.27
2023-01-13T11:57:20.556Z,7.20
2023-01-13T12:00:34.665Z,7.23
2023-01-13T12:03:43.818Z,7.44
2023-01-13T12:06:49.390Z,7.47
2023-01-13T12:10:04.498Z,7.39
2023-01-13T12:13:19.407Z,7.64
2023-01-13T12:16:24.539Z,7.75
2023-01-13T12:19:30.193Z,7.63
2023-01-13T12:22:36.855Z,7.51
2023-01-13T12:25:45.417Z,7.80
2023-01-13T12:28:52.305Z,7.76
2023-01-13T12:31:56.379Z,7.60
2023-01-13T12:35:18.229Z,7.50
2023-01-13T12:38:34.775Z,7.51
2023-01-13T12:41:59.876Z,7.25
2023-01-13T12:45:23.092Z,7.33
2023-01-13T12:48:46.990Z,7.15
2023-01-13T12:52:20.459Z,7.42
2023-01-13T12:55:24.644Z,7.46
2023-01-13T12:58:30.771Z,7.36
2023-01-13T13:01:36.766Z,6.64
2023-01-13T13:04:47.659Z,7.28
2023-01-13T13:08:08.205Z,7.36
2023-01-13T13:11:54.583Z,7.29
2023-01-13T13:15:23.832Z,7.35
2023-01-13T13:18:29.759Z,7.19
2023-01-13T13:22:07.062Z,7.21
2023-01-13T13:25:27.874Z,7.04
2023-01-13T13:28:37.037Z,6.72
2023-01-13T13:32:11.100Z,5.98
2023-01-13T13:35:40.181Z,6.63
2023-01-13T13:39:19.269Z,6.70
2023-01-13T13:42:43.575Z,6.69
2023-01-13T13:46:11.467Z,6.59
2023-01-13T13:49:17.128Z,6.67
2023-01-13T13:52:24.166Z,6.59
2023-01-13T13:55:29.522Z,6.54
2023-01-13T13:58:37.057Z,6.58
2023-01-13T14:01:46.333Z,6.63
2023-01-13T14:04:51.495Z,6.66
2023-01-13T14:08:00.489Z,6.78
2023-01-13T14:11:29.032Z,6.84
2023-01-13T14:14:32.466Z,6.89
2023-01-13T14:17:35.940Z,6.92
2023-01-13T14:20:40.921Z,7.03
2023-01-13T14:23:52.363Z,7.00
2023-01-13T14:27:09.427Z,7.00
2023-01-13T14:30:16.952Z,6.97
2023-01-13T14:33:24.375Z,6.98
2023-01-13T14:36:48.412Z,7.06
2023-01-13T14:39:57.918Z,7.03
2023-01-13T14:43:11.403Z,6.88
2023-01-13T14:46:21.061Z,6.82
2023-01-13T14:49:29.407Z,6.65
2023-01-13T14:52:36.018Z,6.74
2023-01-13T14:55:40.747Z,6.58
2023-01-13T14:58:48.160Z,6.71
2023-01-13T15:01:52.209Z,6.59
2023-01-13T15:04:58.647Z,6.47
2023-01-13T15:08:06.486Z,6.49
2023-01-13T15:11:21.844Z,6.47
2023-01-13T15:14:31.151Z,6.41
2023-01-13T15:17:34.743Z,6.52
2023-01-13T15:20:38.264Z,6.43
2023-01-13T15:23:43.460Z,6.28
2023-01-13T15:26:46.773Z,6.40
2023-01-13T15:29:50.417Z,6.32
2023-01-13T15:32:57.738Z,6.30
2023-01-13T15:36:03.074Z,6.12
2023-01-13T15:39:13.510Z,6.11
2023-01-13T15:42:34.417Z,6.09
2023-01-13T15:45:55.988Z,5.56
2023-01-13T15:49:03.114Z,6.07
2023-01-13T15:52:19.245Z,5.91
2023-01-13T15:55:23.897Z,5.99
2023-01-13T15:58:31.832Z,5.89
2023-01-13T16:01:35.061Z,5.92
2023-01-13T16:04:38.310Z,5.75
2023-01-13T16:07:41.841Z,5.82
2023-01-13T16:10:47.860Z,5.66
2023-01-13T16:13:51.074Z,5.87
2023-01-13T16:16:54.764Z,5.79
2023-01-13T16:19:58.180Z,5.72
2023-01-13T16:23:01.533Z,5.55
2023-01-13T16:26:07.793Z,5.57
2023-01-13T16:29:12.543Z,5.77
2023-01-13T16:34:23.901Z,5.65
2023-01-13T16:37:29.702Z,5.61
2023-01-13T16:40:34.937Z,5.63
2023-01-13T16:43:42.235Z,5.74
2023-01-13T16:46:45.769Z,5.85
2023-01-13T16:49:50.555Z,5.87
2023-01-13T16:52:53.822Z,5.95
2023-01-13T16:55:57.115Z,5.96
2023-01-13T16:59:03.159Z,5.94
2023-01-13T17:02:12.513Z,5.67
2023-01-13T17:05:17.651Z,5.71
2023-01-13T17:08:20.931Z,5.59
2023-01-13T17:11:24.548Z,5.38
2023-01-13T17:14:27.894Z,5.31
2023-01-13T17:17:31.480Z,5.54
2023-01-13T17:20:39.100Z,5.34
2023-01-13T17:23:42.925Z,5.28
2023-01-13T17:26:49.329Z,5.31
2023-01-13T17:30:01.164Z,5.26
2023-01-13T17:33:07.619Z,5.23
2023-01-13T17:36:12.386Z,5.28
2023-01-13T17:39:17.649Z,5.26
2023-01-13T17:42:21.387Z,5.29
2023-01-13T17:45:24.919Z,5.29
2023-01-13T17:48:28.688Z,5.32
2023-01-13T17:51:34.833Z,5.52
2023-01-13T17:54:39.856Z,5.47
2023-01-13T17:57:43.144Z,5.38
2023-01-13T18:00:46.841Z,5.36
2023-01-13T18:03:53.279Z,5.46
2023-01-13T18:06:58.606Z,5.53
2023-01-13T18:10:02.029Z,5.49
2023-01-13T18:13:06.404Z,4.98
2023-01-13T18:16:11.006Z,5.54
2023-01-13T18:19:31.636Z,5.52
2023-01-13T18:22:53.695Z,5.55
2023-01-13T18:26:14.721Z,5.57
2023-01-13T18:29:18.479Z,5.62
2023-01-13T18:32:22.734Z,5.57
2023-01-13T18:35:26.089Z,5.56
2023-01-13T18:38:30.818Z,5.58
2023-01-13T18:41:52.021Z,5.68
2023-01-13T18:44:56.953Z,5.54
2023-01-13T18:48:02.639Z,5.41
2023-01-13T18:51:06.213Z,5.65
2023-01-13T18:54:10.860Z,5.54
2023-01-13T18:57:14.708Z,5.59
2023-01-13T19:00:20.108Z,5.29
2023-01-13T19:03:30.017Z,5.44
2023-01-13T19:06:34.538Z,5.37
2023-01-13T19:09:40.143Z,5.40
2023-01-13T19:12:43.957Z,5.49
2023-01-13T19:15:47.297Z,5.47
2023-01-13T19:18:50.665Z,5.42
2023-01-13T19:21:54.029Z,5.36
2023-01-13T19:24:59.713Z,5.34
2023-01-13T19:28:04.039Z,5.34
2023-01-13T19:31:09.519Z,5.40
2023-01-13T19:34:13.061Z,5.33
2023-01-13T19:37:30.089Z,5.40
2023-01-13T19:40:35.004Z,5.49
2023-01-13T19:43:55.812Z,5.40
2023-01-13T19:46:59.615Z,5.44
2023-01-13T19:50:06.492Z,5.40
2023-01-13T19:53:16.818Z,5.54
2023-01-13T19:56:21.687Z,5.55
2023-01-13T19:59:29.288Z,5.57
2023-01-13T20:02:32.759Z,5.64
2023-01-13T20:05:36.209Z,5.68
2023-01-13T20:08:39.711Z,5.66
2023-01-13T20:11:45.600Z,5.65
2023-01-13T20:14:49.940Z,5.67
2023-01-13T20:17:54.038Z,5.65
2023-01-13T20:21:07.142Z,5.63
2023-01-13T20:24:18.562Z,5.61
2023-01-13T20:27:26.289Z,5.60
2023-01-13T20:30:29.654Z,5.58
2023-01-13T20:33:36.311Z,5.57
2023-01-13T20:36:43.322Z,5.68
2023-01-13T20:39:46.865Z,5.66
2023-01-13T20:42:53.951Z,5.70
2023-01-13T20:46:00.165Z,5.75
2023-01-13T20:49:03.768Z,5.76
2023-01-13T20:52:19.073Z,5.66
2023-01-13T20:55:23.355Z,5.58
2023-01-13T20:58:34.358Z,5.58
2023-01-13T21:01:38.305Z,5.28
2023-01-13T21:04:51.016Z,5.71
2023-01-13T21:08:00.437Z,5.70
2023-01-13T21:11:14.775Z,5.73
2023-01-13T21:14:42.154Z,5.61
2023-01-13T21:18:29.723Z,5.67
2023-01-13T21:21:43.151Z,5.60
2023-01-13T21:24:55.879Z,5.49
2023-01-13T21:28:10.530Z,5.68
2023-01-13T21:31:19.925Z,5.59
2023-01-13T21:34:31.746Z,5.64
2023-01-13T21:37:47.461Z,5.59
2023-01-13T21:41:05.585Z,5.50
2023-01-13T21:44:40.028Z,5.47
2023-01-13T21:48:08.106Z,5.44
2023-01-13T21:51:17.808Z,5.51
2023-01-13T21:54:26.621Z,5.49
2023-01-13T21:57:30.007Z,5.46
2023-01-13T22:00:37.694Z,5.50
2023-01-13T22:04:05.070Z,5.36
2023-01-13T22:07:09.709Z,5.37
2023-01-13T22:10:25.913Z,5.35
2023-01-13T22:13:50.000Z,5.33
2023-01-13T22:16:56.756Z,5.40
2023-01-13T22:20:08.606Z,5.35
2023-01-13T22:23:21.531Z,5.26
2023-01-13T22:26:29.636Z,5.02
2023-01-13T22:29:41.472Z,5.11
2023-01-13T22:34:26.029Z,5.06
2023-01-13T22:37:30.249Z,4.55
2023-01-13T22:40:39.748Z,4.84
2023-01-13T22:43:56.467Z,4.83
2023-01-13T22:47:01.168Z,4.73
2023-01-13T22:50:15.367Z,4.71
2023-01-13T22:53:30.269Z,4.79
2023-01-13T22:56:44.950Z,4.71
2023-01-13T22:59:59.604Z,4.86
2023-01-13T23:03:12.103Z,4.93
2023-01-13T23:09:48.515Z,4.85
2023-01-13T23:13:03.677Z,4.96
2023-01-13T23:16:46.220Z,4.85
2023-01-13T23:20:15.752Z,4.85
2023-01-13T23:23:26.099Z,4.83
2023-01-13T23:26:39.007Z,4.85
2023-01-13T23:29:49.156Z,4.81
2023-01-13T23:32:53.383Z,4.87
2023-01-13T23:36:13.872Z,4.78
2023-01-13T23:39:42.268Z,4.67
2023-01-13T23:42:50.360Z,4.68
2023-01-13T23:46:08.057Z,4.62
2023-01-13T23:49:15.049Z,4.71
2023-01-13T23:52:22.547Z,4.75
2023-01-13T23:55:33.660Z,4.63
2023-01-13T23:58:41.615Z,4.57
